createdAt,value
2019-05-14T00:02:32.827Z,3.90
2019-05-14T00:08:34.543Z,4.00
2019-05-14T00:14:40.051Z,3.80
2019-05-14T00:20:41.785Z,3.80
2019-05-14T00:26:42.885Z,4.00
2019-05-14T00:32:44.929Z,3.90
2019-05-14T00:38:46.528Z,3.90
2019-05-14T00:44:57.741Z,3.60
2019-05-14T00:50:55.319Z,3.50
2019-05-14T00:56:56.958Z,3.50
2019-05-14T01:02:58.824Z,3.30
2019-05-14T01:09:01.364Z,3.30
2019-05-14T01:15:09.753Z,3.20
2019-05-14T01:21:11.664Z,3.00
2019-05-14T01:27:14.464Z,2.80
2019-05-14T01:33:16.200Z,2.60
2019-05-14T01:39:17.883Z,2.30
2019-05-14T01:45:25.158Z,2.20
2019-05-14T01:51:22.930Z,2.20
2019-05-14T01:57:24.435Z,2.50
2019-05-14T02:03:28.288Z,2.40
2019-05-14T02:09:31.091Z,2.30
2019-05-14T02:15:39.050Z,2.20
2019-05-14T02:21:36.270Z,2.10
2019-05-14T02:27:37.783Z,2.10
2019-05-14T02:33:40.275Z,2.20
2019-05-14T02:39:41.709Z,2.10
2019-05-14T02:46:00.865Z,1.90
2019-05-14T02:51:50.259Z,1.90
2019-05-14T02:57:50.588Z,2.00
2019-05-14T03:03:52.209Z,2.10
2019-05-14T03:09:54.000Z,2.10
2019-05-14T03:15:55.487Z,2.00
2019-05-14T03:21:59.989Z,1.90
2019-05-14T03:28:01.256Z,1.90
2019-05-14T03:34:03.932Z,1.80
2019-05-14T03:40:08.946Z,1.70
2019-05-14T03:46:10.555Z,1.70
2019-05-14T03:52:12.301Z,1.80
2019-05-14T03:58:14.359Z,2.00
2019-05-14T04:04:19.154Z,2.00
2019-05-14T04:10:20.694Z,2.20
2019-05-14T04:16:29.115Z,2.40
2019-05-14T04:22:31.769Z,2.70
2019-05-14T04:28:35.096Z,2.90
2019-05-14T04:34:39.889Z,3.00
2019-05-14T04:40:41.717Z,3.10
2019-05-14T04:46:49.292Z,3.50
2019-05-14T04:52:51.342Z,4.10
2019-05-14T04:58:53.003Z,4.80
2019-05-14T05:04:54.674Z,5.10
2019-05-14T05:10:56.188Z,5.50
2019-05-14T05:16:59.785Z,5.70
2019-05-14T05:23:01.118Z,5.70
2019-05-14T05:29:07.275Z,5.80
2019-05-14T05:35:09.444Z,5.80
2019-05-14T05:41:11.399Z,6.00
2019-05-14T05:47:12.925Z,6.30
2019-05-14T05:53:14.437Z,7.50
2019-05-14T05:59:18.776Z,8.60
2019-05-14T06:05:20.737Z,9.20
2019-05-14T06:11:22.291Z,8.80
2019-05-14T06:17:23.711Z,9.20
2019-05-14T06:23:25.243Z,9.80
2019-05-14T06:29:28.807Z,9.20
2019-05-14T06:35:30.306Z,9.00
2019-05-14T06:41:31.827Z,9.00
2019-05-14T06:47:33.335Z,9.10
2019-05-14T06:53:34.949Z,9.30
2019-05-14T06:59:38.093Z,9.50
2019-05-14T07:05:39.712Z,9.70
2019-05-14T07:11:41.198Z,9.70
2019-05-14T07:17:44.958Z,10.00
2019-05-14T07:23:48.842Z,10.30
2019-05-14T07:29:52.794Z,10.40
2019-05-14T07:35:54.294Z,10.80
2019-05-14T07:41:55.865Z,10.60
2019-05-14T07:47:58.317Z,10.80
2019-05-14T07:53:59.918Z,11.10
2019-05-14T08:00:02.959Z,11.10
2019-05-14T08:06:04.512Z,11.10
2019-05-14T08:12:05.959Z,11.40
2019-05-14T08:18:08.189Z,11.50
2019-05-14T08:24:09.861Z,11.80
2019-05-14T08:30:11.985Z,12.00
2019-05-14T08:36:13.539Z,12.10
2019-05-14T08:42:15.006Z,12.10
2019-05-14T08:48:19.042Z,12.40
2019-05-14T08:54:22.218Z,12.50
2019-05-14T09:00:23.910Z,12.60
2019-05-14T09:06:25.455Z,12.60
2019-05-14T09:12:28.119Z,12.90
2019-05-14T09:18:29.598Z,13.20
2019-05-14T09:24:31.121Z,13.50
2019-05-14T09:30:32.788Z,13.20
2019-05-14T09:36:34.269Z,13.40
2019-05-14T09:42:35.794Z,13.80
2019-05-14T09:48:38.055Z,13.70
2019-05-14T09:54:43.871Z,13.10
2019-05-14T10:00:43.327Z,13.60
2019-05-14T10:06:44.925Z,13.70
2019-05-14T10:12:53.937Z,14.00
2019-05-14T10:18:52.733Z,13.80
2019-05-14T10:24:53.589Z,13.70
2019-05-14T10:30:55.495Z,14.40
2019-05-14T10:36:59.106Z,14.30
2019-05-14T10:43:00.217Z,15.10
2019-05-14T10:49:16.534Z,14.80
2019-05-14T10:55:08.011Z,14.70
2019-05-14T11:01:11.481Z,15.40
2019-05-14T11:07:13.022Z,16.10
2019-05-14T11:13:14.470Z,15.70
2019-05-14T11:19:15.911Z,16.10
2019-05-14T11:25:19.616Z,16.40
2019-05-14T11:31:20.959Z,15.50
2019-05-14T11:37:22.409Z,14.80
2019-05-14T11:43:28.494Z,14.20
2019-05-14T11:49:30.339Z,15.40
2019-05-14T11:55:31.933Z,16.10
2019-05-14T12:01:33.671Z,16.00
2019-05-14T12:07:35.109Z,15.90
2019-05-14T12:13:39.197Z,15.10
2019-05-14T12:19:43.354Z,16.20
2019-05-14T12:25:43.768Z,15.70
2019-05-14T12:31:45.222Z,15.40
2019-05-14T12:37:46.642Z,16.60
2019-05-14T12:43:48.197Z,17.50
2019-05-14T12:49:49.742Z,16.40
2019-05-14T12:55:51.283Z,15.60
2019-05-14T13:01:58.500Z,16.10
2019-05-14T13:07:59.217Z,16.50
2019-05-14T13:14:00.664Z,16.20
2019-05-14T13:20:04.977Z,16.80
2019-05-14T13:26:10.212Z,16.40
2019-05-14T13:32:12.362Z,16.40
2019-05-14T13:38:14.346Z,16.50
2019-05-14T13:44:24.236Z,16.10
2019-05-14T13:50:20.362Z,15.50
2019-05-14T13:56:21.997Z,15.30
2019-05-14T14:02:23.447Z,15.30
2019-05-14T14:08:29.286Z,15.70
2019-05-14T14:14:30.918Z,17.30
2019-05-14T14:20:33.418Z,17.90
2019-05-14T14:26:35.197Z,16.90
2019-05-14T14:32:36.848Z,16.30
2019-05-14T14:38:40.131Z,15.90
2019-05-14T14:44:41.794Z,15.60
2019-05-14T14:50:43.318Z,15.50
2019-05-14T14:56:48.546Z,16.00
2019-05-14T15:02:49.877Z,16.10
2019-05-14T15:08:51.370Z,17.00
2019-05-14T15:14:52.906Z,17.70
2019-05-14T15:20:54.424Z,17.40
2019-05-14T15:27:06.498Z,17.90
2019-05-14T15:33:00.231Z,18.70
2019-05-14T15:39:03.844Z,18.50
2019-05-14T15:45:08.853Z,17.90
2019-05-14T15:51:15.012Z,17.60
2019-05-14T15:57:14.766Z,16.70
2019-05-14T16:03:18.634Z,16.10
2019-05-14T16:09:19.863Z,15.80
2019-05-14T16:15:22.509Z,15.50
2019-05-14T16:21:24.035Z,17.10
2019-05-14T16:27:25.664Z,19.40
2019-05-14T16:33:29.134Z,17.40
2019-05-14T16:39:30.668Z,15.30
2019-05-14T16:45:32.154Z,14.50
2019-05-14T16:51:33.721Z,15.80
2019-05-14T16:57:35.559Z,17.90
2019-05-14T17:03:39.848Z,19.10
2019-05-14T17:09:40.521Z,17.40
2019-05-14T17:15:41.954Z,16.20
2019-05-14T17:21:43.465Z,17.60
2019-05-14T17:27:45.222Z,17.40
2019-05-14T17:33:49.017Z,16.80
2019-05-14T17:39:50.505Z,15.80
2019-05-14T17:45:52.451Z,15.50
2019-05-14T17:51:54.017Z,15.60
2019-05-14T17:57:58.917Z,16.50
2019-05-14T18:03:59.426Z,17.00
2019-05-14T18:10:01.161Z,18.90
2019-05-14T18:16:03.003Z,18.50
2019-05-14T18:22:04.552Z,16.60
2019-05-14T18:28:09.078Z,14.80
2019-05-14T18:34:09.416Z,13.80
2019-05-14T18:40:11.353Z,12.90
2019-05-14T18:46:13.054Z,12.30
2019-05-14T18:52:18.214Z,11.80
2019-05-14T18:58:21.752Z,11.10
2019-05-14T19:04:23.220Z,10.50
2019-05-14T19:10:25.013Z,10.10
2019-05-14T19:16:28.809Z,9.60
2019-05-14T19:22:30.748Z,8.60
2019-05-14T19:28:33.500Z,8.00
2019-05-14T19:34:38.008Z,7.50
2019-05-14T19:40:39.316Z,7.00
2019-05-14T19:46:40.886Z,6.80
2019-05-14T19:52:42.639Z,6.50
2019-05-14T19:58:45.077Z,6.10
2019-05-14T20:04:46.642Z,5.70
2019-05-14T20:10:49.673Z,5.60
2019-05-14T20:16:51.570Z,5.30
2019-05-14T20:22:53.256Z,5.00
2019-05-14T20:28:55.375Z,4.80
2019-05-14T20:34:58.064Z,4.70
2019-05-14T20:40:59.637Z,4.50
2019-05-14T20:47:09.129Z,4.30
2019-05-14T20:53:12.061Z,4.20
2019-05-14T20:59:13.586Z,4.10
2019-05-14T21:05:15.342Z,4.00
2019-05-14T21:11:18.889Z,3.90
2019-05-14T21:17:20.157Z,3.80
2019-05-14T21:23:22.764Z,3.60
2019-05-14T21:29:24.659Z,3.50
2019-05-14T21:35:26.266Z,3.30
2019-05-14T21:41:29.015Z,3.60
2019-05-14T21:47:30.843Z,3.60
2019-05-14T21:53:38.197Z,3.30
2019-05-14T21:59:38.993Z,3.20
2019-05-14T22:05:40.757Z,3.20
2019-05-14T22:11:42.506Z,3.00
2019-05-14T22:17:44.007Z,2.90
2019-05-14T22:23:45.456Z,2.90
2019-05-14T22:29:48.820Z,2.80
2019-05-14T22:35:50.456Z,2.80
2019-05-14T22:41:53.153Z,2.70
2019-05-14T22:47:54.834Z,2.50
2019-05-14T22:53:58.939Z,2.30
2019-05-14T23:00:00.156Z,2.20
2019-05-14T23:06:01.812Z,2.10
2019-05-14T23:12:03.444Z,2.00
2019-05-14T23:18:05.603Z,1.70
2019-05-14T23:24:09.175Z,1.60
2019-05-14T23:30:10.950Z,1.60
2019-05-14T23:36:12.638Z,1.50
2019-05-14T23:42:14.158Z,1.50
2019-05-14T23:48:15.635Z,1.30
2019-05-14T23:54:18.240Z,1.20
